createdAt,value
2018-05-03T00:01:44.449Z,15.80
2018-05-03T00:04:12.675Z,15.80
2018-05-03T00:06:42.403Z,15.70
2018-05-03T00:09:10.675Z,15.70
2018-05-03T00:11:38.903Z,15.70
2018-05-03T00:14:08.273Z,15.70
2018-05-03T00:16:37.323Z,15.70
2018-05-03T00:19:05.551Z,15.60
2018-05-03T00:21:34.547Z,15.60
2018-05-03T00:24:03.218Z,15.60
2018-05-03T00:26:32.574Z,15.60
2018-05-03T00:29:00.803Z,15.60
2018-05-03T00:31:29.059Z,15.50
2018-05-03T00:33:57.287Z,15.50
2018-05-03T00:36:25.530Z,15.50
2018-05-03T00:38:53.801Z,15.40
2018-05-03T00:41:22.023Z,15.40
2018-05-03T00:43:50.265Z,15.40
2018-05-03T00:46:19.683Z,15.30
2018-05-03T00:48:48.674Z,15.30
2018-05-03T00:51:18.406Z,15.30
2018-05-03T00:53:46.674Z,15.30
2018-05-03T00:56:16.207Z,15.20
2018-05-03T00:58:44.435Z,15.20
2018-05-03T01:01:12.723Z,15.20
2018-05-03T01:03:40.927Z,15.20
2018-05-03T01:06:09.156Z,15.20
2018-05-03T01:08:37.421Z,15.10
2018-05-03T01:11:05.658Z,15.00
2018-05-03T01:13:34.651Z,15.00
2018-05-03T01:16:02.930Z,15.00
2018-05-03T01:18:31.160Z,15.00
2018-05-03T01:20:59.391Z,15.00
2018-05-03T01:23:27.647Z,15.00
2018-05-03T01:28:25.719Z,14.90
2018-05-03T01:30:54.003Z,14.90
2018-05-03T01:33:22.235Z,14.90
2018-05-03T01:36:03.621Z,14.90
2018-05-03T01:38:31.842Z,14.90
2018-05-03T01:41:00.834Z,14.80
2018-05-03T01:43:29.115Z,14.80
2018-05-03T01:45:58.123Z,14.70
2018-05-03T01:48:26.346Z,14.70
2018-05-03T01:50:54.612Z,14.70
2018-05-03T01:53:22.830Z,14.60
2018-05-03T01:55:51.058Z,14.60
2018-05-03T01:58:19.371Z,14.60
2018-05-03T02:00:47.599Z,14.50
2018-05-03T02:03:15.831Z,14.50
2018-05-03T02:05:44.375Z,14.40
2018-05-03T02:08:14.119Z,14.40
2018-05-03T02:13:11.922Z,14.30
2018-05-03T02:15:40.159Z,14.30
2018-05-03T02:18:09.576Z,14.30
2018-05-03T02:20:37.806Z,14.30
2018-05-03T02:23:06.039Z,14.20
2018-05-03T02:25:34.322Z,14.20
2018-05-03T02:28:04.059Z,14.20
2018-05-03T02:30:32.290Z,14.10
2018-05-03T02:33:00.569Z,14.10
2018-05-03T02:35:28.808Z,14.00
2018-05-03T02:37:57.055Z,14.00
2018-05-03T02:40:25.334Z,14.00
2018-05-03T02:42:54.699Z,14.00
2018-05-03T02:45:22.930Z,14.00
2018-05-03T02:47:51.212Z,13.90
2018-05-03T02:50:19.446Z,13.90
2018-05-03T02:55:18.042Z,13.80
2018-05-03T02:58:03.950Z,13.80
2018-05-03T03:00:49.879Z,13.70
2018-05-03T03:06:48.418Z,13.70
2018-05-03T03:13:04.283Z,13.70
2018-05-03T03:15:44.494Z,13.70
2018-05-03T03:18:30.528Z,13.60
2018-05-03T03:21:16.310Z,13.60
2018-05-03T03:24:02.641Z,13.50
2018-05-03T03:32:29.251Z,13.40
2018-05-03T03:38:11.290Z,13.30
2018-05-03T03:40:52.171Z,13.20
2018-05-03T03:43:32.195Z,13.10
2018-05-03T03:46:00.462Z,13.10
2018-05-03T03:48:29.827Z,13.00
2018-05-03T03:50:58.051Z,13.00
2018-05-03T03:53:27.095Z,12.90
2018-05-03T03:55:56.452Z,12.90
2018-05-03T03:58:24.682Z,12.90
2018-05-03T04:00:53.047Z,12.80
2018-05-03T04:03:22.402Z,12.70
2018-05-03T04:05:51.025Z,12.70
2018-05-03T04:08:19.333Z,12.70
2018-05-03T04:10:47.558Z,12.60
2018-05-03T04:13:15.787Z,12.60
2018-05-03T04:15:44.839Z,12.60
2018-05-03T04:18:25.039Z,12.50
2018-05-03T04:21:06.999Z,12.50
2018-05-03T04:23:47.014Z,12.40
2018-05-03T04:26:16.731Z,12.40
2018-05-03T04:28:45.355Z,12.40
2018-05-03T04:31:13.585Z,12.30
2018-05-03T04:33:42.663Z,12.30
2018-05-03T04:36:10.894Z,12.30
2018-05-03T04:38:39.123Z,12.30
2018-05-03T04:41:08.339Z,12.30
2018-05-03T04:43:36.567Z,12.20
2018-05-03T04:46:04.789Z,12.30
2018-05-03T04:48:34.587Z,12.20
2018-05-03T04:51:02.822Z,12.30
2018-05-03T04:53:32.557Z,12.20
2018-05-03T04:56:01.627Z,12.20
2018-05-03T04:58:29.859Z,12.30
2018-05-03T05:00:59.648Z,12.30
2018-05-03T05:03:27.936Z,12.30
2018-05-03T05:05:57.300Z,12.30
2018-05-03T05:08:25.534Z,12.30
2018-05-03T05:10:53.804Z,12.40
2018-05-03T05:13:22.035Z,12.40
2018-05-03T05:15:50.255Z,12.40
2018-05-03T05:18:19.677Z,12.40
2018-05-03T05:20:48.775Z,12.50
2018-05-03T05:23:17.002Z,12.60
2018-05-03T05:25:46.772Z,12.60
2018-05-03T05:28:15.003Z,12.60
2018-05-03T05:30:44.446Z,12.70
2018-05-03T05:35:42.503Z,12.80
2018-05-03T05:38:11.503Z,12.80
2018-05-03T05:40:39.766Z,12.90
2018-05-03T05:43:07.995Z,13.00
2018-05-03T05:45:37.742Z,13.00
2018-05-03T05:48:06.015Z,13.10
2018-05-03T05:50:34.252Z,13.10
2018-05-03T05:53:03.255Z,13.20
2018-05-03T05:55:31.551Z,13.30
2018-05-03T05:58:00.174Z,13.30
2018-05-03T06:00:28.404Z,13.40
2018-05-03T06:02:57.867Z,13.50
2018-05-03T06:05:26.091Z,13.60
2018-05-03T06:07:54.388Z,13.70
2018-05-03T06:10:22.624Z,13.70
2018-05-03T06:12:50.840Z,13.70
2018-05-03T06:15:20.243Z,13.80
2018-05-03T06:17:48.476Z,13.90
2018-05-03T06:20:17.462Z,13.90
2018-05-03T06:22:45.759Z,13.90
2018-05-03T06:25:15.491Z,14.00
2018-05-03T06:27:43.714Z,14.10
2018-05-03T06:30:12.807Z,14.10
2018-05-03T06:32:41.040Z,14.30
2018-05-03T06:35:10.030Z,14.30
2018-05-03T06:37:38.308Z,14.40
2018-05-03T06:40:06.542Z,14.50
2018-05-03T06:42:34.766Z,14.50
2018-05-03T06:45:03.440Z,14.60
2018-05-03T06:47:31.666Z,14.60
2018-05-03T06:50:00.656Z,14.80
2018-05-03T06:52:32.042Z,14.90
2018-05-03T06:55:00.273Z,15.00
2018-05-03T06:59:59.131Z,15.30
2018-05-03T07:04:56.838Z,15.50
2018-05-03T07:07:25.138Z,15.60
2018-05-03T07:09:53.449Z,15.60
2018-05-03T07:14:51.094Z,15.90
2018-05-03T07:17:19.722Z,16.00
2018-05-03T07:19:47.952Z,16.20
2018-05-03T07:22:20.635Z,16.40
2018-05-03T07:24:50.375Z,16.60
2018-05-03T07:27:18.611Z,16.80
2018-05-03T07:29:48.390Z,16.90
2018-05-03T07:32:16.622Z,17.10
2018-05-03T07:34:44.929Z,17.10
2018-05-03T07:37:14.622Z,17.20
2018-05-03T07:42:12.323Z,17.50
2018-05-03T07:44:40.607Z,17.60
2018-05-03T07:47:08.831Z,17.70
2018-05-03T07:49:37.065Z,17.80
2018-05-03T07:52:05.334Z,18.00
2018-05-03T07:54:34.694Z,18.00
2018-05-03T07:57:02.929Z,18.10
2018-05-03T08:02:01.955Z,18.40
2018-05-03T08:04:30.116Z,18.50
2018-05-03T08:06:58.382Z,18.60
2018-05-03T08:09:27.374Z,18.70
2018-05-03T08:11:55.603Z,18.70
2018-05-03T08:14:23.871Z,18.80
2018-05-03T08:16:53.602Z,18.90
2018-05-03T08:19:22.602Z,18.90
2018-05-03T08:21:50.907Z,19.10
2018-05-03T08:24:19.918Z,19.20
2018-05-03T08:26:48.154Z,19.40
2018-05-03T08:29:16.423Z,19.40
2018-05-03T08:31:44.666Z,19.50
2018-05-03T08:34:12.884Z,19.60
2018-05-03T08:36:41.163Z,19.80
2018-05-03T08:39:09.395Z,19.90
2018-05-03T08:41:37.626Z,19.90
2018-05-03T08:44:05.883Z,20.00
2018-05-03T08:46:34.106Z,20.20
2018-05-03T08:49:03.152Z,20.40
2018-05-03T08:51:31.375Z,20.60
2018-05-03T08:53:59.607Z,20.70
2018-05-03T08:56:27.878Z,20.80
2018-05-03T08:58:56.115Z,21.00
2018-05-03T09:01:24.377Z,21.20
2018-05-03T09:03:52.609Z,21.30
2018-05-03T09:06:20.843Z,21.40
2018-05-03T09:08:49.104Z,21.50
2018-05-03T09:11:18.114Z,21.70
2018-05-03T09:13:47.118Z,22.10
2018-05-03T09:16:16.750Z,22.80
2018-05-03T09:18:45.747Z,23.70
2018-05-03T09:21:14.368Z,24.80
2018-05-03T09:26:12.878Z,27.30
2018-05-03T09:28:41.107Z,28.20
2018-05-03T09:31:09.367Z,28.60
2018-05-03T09:33:37.598Z,28.50
2018-05-03T09:36:05.895Z,28.00
2018-05-03T09:38:34.119Z,27.20
2018-05-03T09:41:03.482Z,26.40
2018-05-03T09:43:31.761Z,25.90
2018-05-03T09:46:01.502Z,25.50
2018-05-03T09:48:30.490Z,25.10
2018-05-03T09:50:59.914Z,24.90
2018-05-03T09:53:28.143Z,24.70
2018-05-03T09:55:57.135Z,24.60
2018-05-03T09:58:26.160Z,24.40
2018-05-03T10:00:54.398Z,24.30
2018-05-03T10:03:22.687Z,24.30
2018-05-03T10:08:20.758Z,24.20
2018-05-03T10:10:49.014Z,24.20
2018-05-03T10:13:18.804Z,24.20
2018-05-03T10:15:47.775Z,24.10
2018-05-03T10:18:17.164Z,24.20
2018-05-03T10:20:45.390Z,24.20
2018-05-03T10:23:14.406Z,24.40
2018-05-03T10:25:43.511Z,24.50
2018-05-03T10:28:11.730Z,24.50
2018-05-03T10:30:40.779Z,24.50
2018-05-03T10:33:09.779Z,24.50
2018-05-03T10:35:38.828Z,24.50
2018-05-03T10:38:07.056Z,24.50
2018-05-03T10:40:36.054Z,24.40
2018-05-03T10:43:04.283Z,24.40
2018-05-03T10:45:32.555Z,24.30
2018-05-03T10:48:00.787Z,24.30
2018-05-03T10:50:29.016Z,24.40
2018-05-03T10:52:57.274Z,24.40
2018-05-03T10:55:25.503Z,24.40
2018-05-03T10:57:53.731Z,24.40
2018-05-03T11:00:23.126Z,24.50
2018-05-03T11:02:51.351Z,24.60
2018-05-03T11:05:19.731Z,24.80
2018-05-03T11:07:47.847Z,24.80
2018-05-03T11:10:16.074Z,25.00
2018-05-03T11:12:44.347Z,25.20
2018-05-03T11:15:12.576Z,25.10
2018-05-03T11:17:40.804Z,24.90
2018-05-03T11:20:09.890Z,24.90
2018-05-03T11:22:38.886Z,24.80
2018-05-03T11:25:07.111Z,24.60
2018-05-03T11:27:36.206Z,24.40
2018-05-03T11:30:04.435Z,24.40
2018-05-03T11:32:33.435Z,24.30
2018-05-03T11:35:02.675Z,24.30
2018-05-03T11:37:31.667Z,24.40
2018-05-03T11:39:59.895Z,24.30
2018-05-03T11:42:28.935Z,24.40
2018-05-03T11:44:57.167Z,24.40
2018-05-03T11:47:25.395Z,24.50
2018-05-03T11:49:53.650Z,24.60
2018-05-03T11:52:23.393Z,24.50
2018-05-03T11:54:52.063Z,24.50
2018-05-03T11:57:21.804Z,24.40
2018-05-03T11:59:51.536Z,24.20
2018-05-03T12:02:20.609Z,24.00
2018-05-03T12:04:48.804Z,23.90
2018-05-03T12:07:18.170Z,23.90
2018-05-03T12:09:46.432Z,24.00
2018-05-03T12:12:14.658Z,24.10
2018-05-03T12:14:42.933Z,24.20
2018-05-03T12:17:11.206Z,24.20
2018-05-03T12:19:39.440Z,24.30
2018-05-03T12:22:07.707Z,24.30
2018-05-03T12:24:36.703Z,24.20
2018-05-03T12:27:05.706Z,23.90
2018-05-03T12:32:04.079Z,23.50
2018-05-03T12:37:01.867Z,23.10
2018-05-03T12:39:30.103Z,23.00
2018-05-03T12:41:59.471Z,22.80
2018-05-03T12:44:27.753Z,22.60
2018-05-03T12:46:55.987Z,22.50
2018-05-03T12:49:24.213Z,22.30
2018-05-03T12:51:52.576Z,22.00
2018-05-03T12:54:20.702Z,21.70
2018-05-03T12:56:48.931Z,21.60
2018-05-03T12:59:18.335Z,21.40
2018-05-03T13:01:46.571Z,21.20
2018-05-03T13:04:15.562Z,21.10
2018-05-03T13:06:44.723Z,21.10
2018-05-03T13:09:12.954Z,21.00
2018-05-03T13:11:41.588Z,21.10
2018-05-03T13:14:09.961Z,21.20
2018-05-03T13:16:38.132Z,21.30
2018-05-03T13:21:35.867Z,21.30
2018-05-03T13:24:04.093Z,21.30
2018-05-03T13:26:32.319Z,21.30
2018-05-03T13:29:00.595Z,21.30
2018-05-03T13:31:28.842Z,21.30
2018-05-03T13:33:58.579Z,21.20
2018-05-03T13:36:26.902Z,21.10
2018-05-03T13:38:56.636Z,21.10
2018-05-03T13:41:26.406Z,21.00
2018-05-03T13:46:24.475Z,20.90
2018-05-03T13:48:52.746Z,20.90
2018-05-03T13:51:20.975Z,20.90
2018-05-03T13:53:49.200Z,20.90
2018-05-03T13:56:17.471Z,20.90
2018-05-03T13:58:45.700Z,21.00
2018-05-03T14:01:13.928Z,21.10
2018-05-03T14:03:42.194Z,21.10
2018-05-03T14:06:10.422Z,21.10
2018-05-03T14:08:40.159Z,21.10
2018-05-03T14:13:38.678Z,21.00
2018-05-03T14:16:06.915Z,21.00
2018-05-03T14:18:35.946Z,21.00
2018-05-03T14:21:04.258Z,21.00
2018-05-03T14:23:32.403Z,21.00
2018-05-03T14:26:00.671Z,21.00
2018-05-03T14:28:29.295Z,21.00
2018-05-03T14:30:57.526Z,20.90
2018-05-03T14:33:26.590Z,20.90
2018-05-03T14:35:54.821Z,20.90
2018-05-03T14:38:23.048Z,20.80
2018-05-03T14:40:51.331Z,20.80
2018-05-03T14:43:19.559Z,20.70
2018-05-03T14:45:47.786Z,20.60
2018-05-03T14:53:15.367Z,20.60
2018-05-03T14:55:43.646Z,20.50
2018-05-03T15:00:41.718Z,20.60
2018-05-03T15:03:09.993Z,20.60
2018-05-03T15:05:38.982Z,20.60
2018-05-03T15:10:36.718Z,20.40
2018-05-03T15:13:04.940Z,20.40
2018-05-03T15:15:33.157Z,20.30
2018-05-03T15:18:01.435Z,20.30
2018-05-03T15:20:29.971Z,20.10
2018-05-03T15:22:59.085Z,20.00
2018-05-03T15:25:27.466Z,20.00
2018-05-03T15:27:55.755Z,20.00
2018-05-03T15:30:23.978Z,20.00
2018-05-03T15:32:53.464Z,19.90
2018-05-03T15:35:23.540Z,20.00
2018-05-03T15:37:51.786Z,19.90
2018-05-03T15:40:20.876Z,20.00
2018-05-03T15:42:49.894Z,20.00
2018-05-03T15:45:18.136Z,20.00
2018-05-03T15:47:46.468Z,20.00
2018-05-03T15:52:44.250Z,20.00
2018-05-03T15:55:13.289Z,19.90
2018-05-03T15:57:42.319Z,19.90
2018-05-03T16:00:10.556Z,19.80
2018-05-03T16:02:39.056Z,19.70
2018-05-03T16:05:07.293Z,19.60
2018-05-03T16:07:35.565Z,19.60
2018-05-03T16:10:03.873Z,19.50
2018-05-03T16:12:32.856Z,19.50
2018-05-03T16:15:01.086Z,19.50
2018-05-03T16:19:59.582Z,19.40
2018-05-03T16:22:27.861Z,19.30
2018-05-03T16:24:57.633Z,19.30
2018-05-03T16:27:26.667Z,19.20
2018-05-03T16:29:55.655Z,19.10
2018-05-03T16:32:23.927Z,19.00
2018-05-03T16:34:52.155Z,19.00
2018-05-03T16:39:51.547Z,18.90
2018-05-03T16:42:21.292Z,18.80
2018-05-03T16:44:49.528Z,18.70
2018-05-03T16:47:18.572Z,18.70
2018-05-03T16:49:46.808Z,18.70
2018-05-03T16:52:16.062Z,18.60
2018-05-03T16:54:45.986Z,18.60
2018-05-03T16:57:15.632Z,18.50
2018-05-03T16:59:43.933Z,18.50
2018-05-03T17:02:12.247Z,18.40
2018-05-03T17:04:41.988Z,18.40
2018-05-03T17:07:11.394Z,18.40
2018-05-03T17:09:39.871Z,18.30
2018-05-03T17:12:08.095Z,18.30
2018-05-03T17:14:36.323Z,18.30
2018-05-03T17:17:04.621Z,18.20
2018-05-03T17:19:32.872Z,18.20
2018-05-03T17:22:02.239Z,18.20
2018-05-03T17:24:30.964Z,18.20
2018-05-03T17:27:00.537Z,18.20
2018-05-03T17:29:28.765Z,18.10
2018-05-03T17:31:57.035Z,18.10
2018-05-03T17:34:25.258Z,18.00
2018-05-03T17:36:53.487Z,18.10
2018-05-03T17:39:21.794Z,18.10
2018-05-03T17:41:50.034Z,18.00
2018-05-03T17:46:47.770Z,17.90
2018-05-03T17:51:45.447Z,17.90
2018-05-03T17:54:14.359Z,17.80
2018-05-03T17:56:42.675Z,17.80
2018-05-03T17:59:11.712Z,17.80
2018-05-03T18:01:40.042Z,17.70
2018-05-03T18:04:08.662Z,17.70
2018-05-03T18:06:37.081Z,17.60
2018-05-03T18:09:06.508Z,17.60
2018-05-03T18:11:34.730Z,17.50
2018-05-03T18:16:32.895Z,17.40
2018-05-03T18:19:02.639Z,17.40
2018-05-03T18:21:31.739Z,17.30
2018-05-03T18:23:59.910Z,17.30
2018-05-03T18:26:28.915Z,17.20
2018-05-03T18:28:57.910Z,17.10
2018-05-03T18:31:26.188Z,17.00
2018-05-03T18:33:55.552Z,17.00
2018-05-03T18:36:23.778Z,17.00
2018-05-03T18:38:52.060Z,16.90
2018-05-03T18:41:20.727Z,16.80
2018-05-03T18:43:49.817Z,16.70
2018-05-03T18:46:18.012Z,16.70
2018-05-03T18:48:46.644Z,16.70
2018-05-03T18:51:14.874Z,16.60
2018-05-03T18:53:43.180Z,16.50
2018-05-03T18:56:12.552Z,16.50
2018-05-03T18:58:40.775Z,16.40
2018-05-03T19:01:09.140Z,16.40
2018-05-03T19:03:37.319Z,16.40
2018-05-03T19:06:06.311Z,16.30
2018-05-03T19:08:35.347Z,16.20
2018-05-03T19:11:03.573Z,16.20
2018-05-03T19:13:33.312Z,16.10
2018-05-03T19:16:03.927Z,16.10
2018-05-03T19:18:32.155Z,16.00
2018-05-03T19:21:00.379Z,16.00
2018-05-03T19:23:28.650Z,15.90
2018-05-03T19:25:57.645Z,15.90
2018-05-03T19:28:25.875Z,15.80
2018-05-03T19:30:54.932Z,15.80
2018-05-03T19:33:24.670Z,15.70
2018-05-03T19:35:54.410Z,15.70
2018-05-03T19:38:23.450Z,15.70
2018-05-03T19:43:21.439Z,15.60
2018-05-03T19:45:50.707Z,15.60
2018-05-03T19:48:18.948Z,15.50
2018-05-03T19:50:47.174Z,15.50
2018-05-03T19:53:15.453Z,15.40
2018-05-03T19:55:44.443Z,15.40
2018-05-03T19:58:13.444Z,15.30
2018-05-03T20:00:41.875Z,15.30
2018-05-03T20:03:10.102Z,15.20
2018-05-03T20:05:38.330Z,15.20
2018-05-03T20:10:36.082Z,15.10
2018-05-03T20:13:05.067Z,15.00
2018-05-03T20:15:34.126Z,15.00
2018-05-03T20:18:02.536Z,15.00
2018-05-03T20:20:30.770Z,14.90
2018-05-03T20:22:59.043Z,14.90
2018-05-03T20:25:27.271Z,14.90
2018-05-03T20:27:56.639Z,14.80
2018-05-03T20:30:24.948Z,14.80
2018-05-03T20:32:53.260Z,14.70
2018-05-03T20:35:21.403Z,14.70
2018-05-03T20:37:50.067Z,14.60
2018-05-03T20:40:19.055Z,14.50
2018-05-03T20:42:47.287Z,14.50
2018-05-03T20:45:15.698Z,14.50
2018-05-03T20:47:43.927Z,14.40
2018-05-03T20:50:12.268Z,14.40
2018-05-03T20:55:10.917Z,14.30
2018-05-03T20:57:40.743Z,14.20
2018-05-03T21:00:08.926Z,14.20
2018-05-03T21:02:37.158Z,14.20
2018-05-03T21:05:09.272Z,14.10
2018-05-03T21:07:38.279Z,14.10
2018-05-03T21:10:06.674Z,14.10
2018-05-03T21:12:35.758Z,14.00
2018-05-03T21:15:04.743Z,14.00
2018-05-03T21:17:34.575Z,14.00
2018-05-03T21:20:03.627Z,13.90
2018-05-03T21:22:32.095Z,13.90
2018-05-03T21:25:01.120Z,13.90
2018-05-03T21:27:29.426Z,13.80
2018-05-03T21:32:28.611Z,13.70
2018-05-03T21:37:27.475Z,13.60
2018-05-03T21:39:55.702Z,13.60
2018-05-03T21:42:23.979Z,13.50
2018-05-03T21:44:52.211Z,13.50
2018-05-03T21:47:20.471Z,13.40
2018-05-03T21:49:48.743Z,13.40
2018-05-03T21:52:18.480Z,13.40
2018-05-03T21:54:46.702Z,13.30
2018-05-03T21:57:15.041Z,13.30
2018-05-03T21:59:43.263Z,13.30
2018-05-03T22:02:11.502Z,13.20
2018-05-03T22:07:09.239Z,13.20
2018-05-03T22:09:37.472Z,13.10
2018-05-03T22:12:05.755Z,13.10
2018-05-03T22:14:33.994Z,13.00
2018-05-03T22:19:32.501Z,13.00
2018-05-03T22:22:01.499Z,12.90
2018-05-03T22:27:00.064Z,12.90
2018-05-03T22:29:28.226Z,12.90
2018-05-03T22:31:56.458Z,12.80
2018-05-03T22:34:24.742Z,12.80
2018-05-03T22:36:54.487Z,12.80
2018-05-03T22:39:23.478Z,12.80
2018-05-03T22:41:52.527Z,12.80
2018-05-03T22:44:21.523Z,12.90
2018-05-03T22:46:49.746Z,12.90
2018-05-03T22:49:18.787Z,12.90
2018-05-03T22:51:47.015Z,12.90
2018-05-03T22:54:15.243Z,12.90
2018-05-03T22:56:43.511Z,12.90
2018-05-03T22:59:13.257Z,12.90
2018-05-03T23:01:41.476Z,12.90
2018-05-03T23:06:40.351Z,12.90
2018-05-03T23:09:08.579Z,12.80
2018-05-03T23:11:36.923Z,12.80
2018-05-03T23:14:05.173Z,12.80
2018-05-03T23:16:34.526Z,12.80
2018-05-03T23:19:02.807Z,12.80
2018-05-03T23:21:31.040Z,12.80
2018-05-03T23:23:59.268Z,12.70
2018-05-03T23:26:27.934Z,12.70
2018-05-03T23:28:56.935Z,12.70
2018-05-03T23:31:26.676Z,12.60
2018-05-03T23:33:54.943Z,12.60
2018-05-03T23:36:23.192Z,12.60
2018-05-03T23:38:51.420Z,12.50
2018-05-03T23:41:19.700Z,12.50
2018-05-03T23:43:47.927Z,12.50
2018-05-03T23:46:16.160Z,12.40
2018-05-03T23:48:46.446Z,12.40
2018-05-03T23:51:15.819Z,12.30
2018-05-03T23:53:44.056Z,12.30
2018-05-03T23:56:13.427Z,12.30
2018-05-03T23:58:42.058Z,12.30
